Time;durP1;ratioP1;P1;durP2;ratioP2;P2;SDS_P1;SDS_P2;PMS_P1;PMS_P2;Temp;Humidity;BMP_temperature;BMP_pressure;BME280_temperature;BME280_humidity;BME280_pressure;Samples;Min_cycle;Max_cycle;Signal;HPM_P1;HPM_P2
2023/11/04 00:01:55;;;;;;;0.65;0.60;;;15.90;66.90;;;;;;5115756;28;20180;-64
2023/11/04 00:04:20;;;;;;;1.15;0.90;;;15.90;66.90;;;;;;5115960;28;20169;-63
2023/11/04 00:06:46;;;;;;;0.88;0.68;;;15.90;66.90;;;;;;5116250;28;20210;-64
2023/11/04 00:09:11;;;;;;;0.70;0.70;;;15.90;66.90;;;;;;5115122;28;20173;-64
2023/11/04 00:11:37;;;;;;;0.60;0.60;;;15.90;66.90;;;;;;5116387;28;20675;-64
2023/11/04 00:14:03;;;;;;;0.70;0.70;;;15.90;66.80;;;;;;5116022;28;20185;-64
2023/11/04 00:16:29;;;;;;;0.70;0.70;;;15.90;66.90;;;;;;5115330;28;20173;-64
2023/11/04 00:18:55;;;;;;;1.27;0.82;;;15.90;66.90;;;;;;5116080;28;20201;-64
2023/11/04 00:21:20;;;;;;;1.67;1.13;;;15.90;66.90;;;;;;5115655;28;20230;-64
2023/11/04 00:23:46;;;;;;;0.77;0.65;;;15.90;66.80;;;;;;5115289;28;20188;-64
2023/11/04 00:26:11;;;;;;;0.88;0.60;;;15.90;66.80;;;;;;5115693;28;20174;-63
2023/11/04 00:28:37;;;;;;;1.65;0.88;;;15.90;66.90;;;;;;5115827;28;20177;-64
2023/11/04 00:31:03;;;;;;;0.70;0.70;;;15.90;66.90;;;;;;5114754;28;20268;-64
2023/11/04 00:33:28;;;;;;;0.50;0.50;;;15.90;66.90;;;;;;5115473;28;20173;-65
2023/11/04 00:35:54;;;;;;;1.00;0.70;;;15.90;66.70;;;;;;5115938;28;20252;-65
2023/11/04 00:38:20;;;;;;;1.25;0.88;;;15.80;66.60;;;;;;5114491;28;20199;-65
2023/11/04 00:40:45;;;;;;;0.65;0.63;;;15.80;67.60;;;;;;5115774;28;20577;-65
2023/11/04 00:43:11;;;;;;;1.00;0.68;;;15.80;66.50;;;;;;5115340;28;20681;-64
2023/11/04 00:45:36;;;;;;;0.47;0.43;;;15.80;66.60;;;;;;5114432;28;20177;-65
2023/11/04 00:48:02;;;;;;;0.82;0.60;;;15.80;66.80;;;;;;5114880;28;20219;-64
2023/11/04 00:50:27;;;;;;;0.70;0.70;;;15.80;66.70;;;;;;5114733;28;20195;-64
2023/11/04 00:52:53;;;;;;;0.80;0.80;;;15.80;66.60;;;;;;5115514;28;20181;-65
2023/11/04 00:55:19;;;;;;;0.40;0.40;;;15.80;66.50;;;;;;5115275;28;20188;-66
2023/11/04 00:57:45;;;;;;;0.65;0.65;;;15.80;66.60;;;;;;5114776;28;20169;-64
2023/11/04 01:00:11;;;;;;;0.50;0.50;;;15.80;66.30;;;;;;5114971;28;20217;-64
2023/11/04 01:02:36;;;;;;;0.70;0.60;;;15.80;66.60;;;;;;5115174;28;20657;-64
2023/11/04 01:05:02;;;;;;;1.10;0.60;;;15.80;66.60;;;;;;5113905;28;20181;-65
2023/11/04 01:07:28;;;;;;;1.02;0.77;;;15.80;66.60;;;;;;5114366;28;20605;-65
2023/11/04 01:09:54;;;;;;;1.17;0.75;;;15.70;66.50;;;;;;5115338;28;20226;-66
2023/11/04 01:12:19;;;;;;;0.50;0.50;;;15.80;66.60;;;;;;5114196;28;20623;-65
2023/11/04 01:14:45;;;;;;;0.90;0.60;;;15.80;66.60;;;;;;5115309;28;20169;-65
2023/11/04 01:17:10;;;;;;;0.73;0.73;;;15.80;66.50;;;;;;5114638;28;20684;-65
2023/11/04 01:19:36;;;;;;;1.77;0.70;;;15.80;66.70;;;;;;5113999;28;20222;-65
2023/11/04 01:22:02;;;;;;;0.50;0.50;;;15.80;66.60;;;;;;5114643;28;20198;-66
2023/11/04 01:24:28;;;;;;;0.55;0.55;;;15.80;66.40;;;;;;5114707;28;20184;-65
2023/11/04 01:26:54;;;;;;;0.95;0.80;;;15.70;66.60;;;;;;5114103;28;20180;-65
2023/11/04 01:29:20;;;;;;;0.90;0.90;;;15.70;66.50;;;;;;5114322;28;20169;-64
2023/11/04 01:31:45;;;;;;;0.70;0.70;;;15.70;66.50;;;;;;5114655;28;20177;-64
2023/11/04 01:34:11;;;;;;;0.90;0.88;;;15.70;66.50;;;;;;5113584;28;20177;-65
2023/11/04 01:36:36;;;;;;;0.80;0.80;;;15.70;66.40;;;;;;5114426;28;20175;-65
2023/11/04 01:39:02;;;;;;;0.82;0.82;;;15.70;66.50;;;;;;5114091;28;20215;-65
2023/11/04 01:41:28;;;;;;;0.80;0.70;;;15.70;66.30;;;;;;5113797;28;20218;-65
2023/11/04 01:43:54;;;;;;;0.70;0.70;;;15.70;66.50;;;;;;5114364;28;20256;-63
2023/11/04 01:46:22;;;;;;;0.63;0.63;;;15.70;66.50;;;;;;5114047;28;20632;-64
2023/11/04 01:48:48;;;;;;;1.02;0.80;;;15.70;66.50;;;;;;5095189;28;20235;-64
2023/11/04 01:51:14;;;;;;;0.60;0.50;;;15.70;66.40;;;;;;5113968;28;20615;-64
2023/11/04 01:53:42;;;;;;;0.68;0.68;;;15.70;66.50;;;;;;5095537;28;20252;-64
2023/11/04 01:56:09;;;;;;;0.70;0.70;;;15.70;66.50;;;;;;5114006;28;20230;-65
2023/11/04 01:58:34;;;;;;;0.73;0.70;;;15.70;66.40;;;;;;5095903;28;20208;-64
2023/11/04 02:01:00;;;;;;;0.60;0.60;;;15.70;66.50;;;;;;5094640;28;20520;-64
2023/11/04 02:03:27;;;;;;;0.52;0.52;;;15.70;66.60;;;;;;5095970;28;20504;-65
2023/11/04 02:05:52;;;;;;;0.73;0.73;;;15.70;66.50;;;;;;5112808;28;20192;-65
2023/11/04 02:08:18;;;;;;;2.05;0.68;;;15.70;66.70;;;;;;5113136;28;20222;-65
2023/11/04 02:10:44;;;;;;;0.60;0.60;;;15.70;66.60;;;;;;5095717;28;20658;-65
2023/11/04 02:13:09;;;;;;;1.50;0.57;;;15.60;66.50;;;;;;5113577;28;20175;-64
2023/11/04 02:15:35;;;;;;;0.60;0.60;;;15.70;66.70;;;;;;5113035;28;20595;-65
2023/11/04 02:18:01;;;;;;;0.80;0.70;;;15.60;66.60;;;;;;5112848;28;20706;-65
2023/11/04 02:20:27;;;;;;;0.63;0.60;;;15.70;66.70;;;;;;5113588;28;20690;-65
2023/11/04 02:22:52;;;;;;;0.50;0.50;;;15.70;66.70;;;;;;5094795;28;20173;-65
2023/11/04 02:25:18;;;;;;;0.50;0.50;;;15.70;66.70;;;;;;5113499;28;20219;-64
2023/11/04 02:27:44;;;;;;;0.93;0.68;;;15.60;66.70;;;;;;5113628;28;20173;-65
2023/11/04 02:30:13;;;;;;;0.60;0.60;;;15.70;66.70;;;;;;5112507;28;20277;-64
2023/11/04 02:32:38;;;;;;;0.60;0.60;;;15.70;66.70;;;;;;5113450;28;20169;-65
2023/11/04 02:35:04;;;;;;;1.42;0.77;;;15.70;66.70;;;;;;5113060;28;20176;-65
2023/11/04 02:37:30;;;;;;;1.15;0.60;;;15.70;66.80;;;;;;5112894;28;20176;-64
2023/11/04 02:39:56;;;;;;;0.57;0.57;;;15.60;66.60;;;;;;5113379;28;20209;-65
2023/11/04 02:42:22;;;;;;;1.00;0.60;;;15.60;66.70;;;;;;5113266;28;20196;-64
2023/11/04 02:44:47;;;;;;;0.65;0.45;;;15.60;66.70;;;;;;5112832;28;20181;-64
2023/11/04 02:47:13;;;;;;;0.43;0.43;;;15.60;66.70;;;;;;5094588;28;20680;-63
2023/11/04 02:49:38;;;;;;;0.50;0.50;;;15.60;67.60;;;;;;5113534;28;20186;-64
2023/11/04 02:52:04;;;;;;;0.60;0.60;;;15.60;66.80;;;;;;5112534;28;20173;-64
2023/11/04 02:54:30;;;;;;;1.63;0.85;;;15.60;66.70;;;;;;5113349;28;20173;-65
2023/11/04 02:56:55;;;;;;;0.47;0.47;;;15.60;66.80;;;;;;5112495;28;20212;-65
2023/11/04 02:59:21;;;;;;;0.93;0.75;;;15.60;66.80;;;;;;5112976;28;20212;-65
2023/11/04 03:01:46;;;;;;;0.90;0.77;;;15.60;66.80;;;;;;5113136;28;20176;-63
2023/11/04 03:04:12;;;;;;;0.70;0.70;;;15.60;66.80;;;;;;5112153;28;20180;-65
2023/11/04 03:06:38;;;;;;;0.47;0.47;;;15.60;66.90;;;;;;5113308;28;20169;-65
2023/11/04 03:09:07;;;;;;;0.57;0.57;;;15.60;66.80;;;;;;5112979;28;20177;-65
2023/11/04 03:11:32;;;;;;;0.60;0.50;;;15.60;66.80;;;;;;5112550;28;20177;-65
2023/11/04 03:13:58;;;;;;;0.77;0.55;;;15.60;66.90;;;;;;5112930;28;20177;-65
2023/11/04 03:16:23;;;;;;;1.10;0.88;;;15.60;66.80;;;;;;5113160;28;20274;-65
2023/11/04 03:18:49;;;;;;;1.13;0.60;;;15.60;66.90;;;;;;5112740;28;20299;-64
2023/11/04 03:21:15;;;;;;;0.60;0.60;;;15.60;66.90;;;;;;5112863;28;20650;-65
2023/11/04 03:23:41;;;;;;;0.75;0.70;;;15.60;66.90;;;;;;5113105;28;20220;-64
2023/11/04 03:26:07;;;;;;;0.50;0.50;;;15.60;66.90;;;;;;5111906;28;20216;-63
2023/11/04 03:28:34;;;;;;;0.65;0.65;;;15.60;66.90;;;;;;5114749;28;20640;-64
2023/11/04 03:31:00;;;;;;;1.67;0.73;;;15.60;66.90;;;;;;5116608;28;20188;-63
2023/11/04 03:33:26;;;;;;;0.73;0.73;;;15.60;67.00;;;;;;5116481;28;20169;-63
2023/11/04 03:35:54;;;;;;;1.25;0.60;;;15.50;66.90;;;;;;5116789;28;20173;-64
2023/11/04 03:38:19;;;;;;;0.50;0.50;;;15.60;67.00;;;;;;5116589;28;20194;-64
2023/11/04 03:40:45;;;;;;;0.57;0.57;;;15.60;67.00;;;;;;5116270;28;20197;-64
2023/11/04 03:43:10;;;;;;;0.63;0.63;;;15.60;67.00;;;;;;5116630;28;20169;-63
2023/11/04 03:45:36;;;;;;;0.55;0.55;;;15.60;66.90;;;;;;5116606;28;20173;-64
2023/11/04 03:48:01;;;;;;;0.68;0.68;;;15.50;67.00;;;;;;5115620;28;20232;-63
2023/11/04 03:50:27;;;;;;;1.42;0.70;;;15.50;67.00;;;;;;5116736;28;20538;-64
2023/11/04 03:52:52;;;;;;;0.57;0.57;;;15.50;67.10;;;;;;5116728;28;20169;-64
2023/11/04 03:55:18;;;;;;;0.77;0.77;;;15.50;67.10;;;;;;5115503;28;20259;-64
2023/11/04 03:57:43;;;;;;;0.50;0.50;;;15.50;67.10;;;;;;5116500;28;20575;-64
2023/11/04 04:00:10;;;;;;;1.23;0.77;;;15.50;67.10;;;;;;5116347;28;20201;-63
2023/11/04 04:02:36;;;;;;;0.57;0.57;;;15.50;67.10;;;;;;5115699;28;20176;-63
2023/11/04 04:05:01;;;;;;;0.82;0.65;;;15.50;67.20;;;;;;5116010;28;20681;-65
2023/11/04 04:07:27;;;;;;;1.50;0.82;;;15.50;67.20;;;;;;5116180;28;20226;-66
2023/11/04 04:09:53;;;;;;;0.90;0.68;;;15.50;67.20;;;;;;5115545;28;20182;-66
2023/11/04 04:12:19;;;;;;;0.95;0.60;;;15.50;67.20;;;;;;5116030;28;20659;-65
2023/11/04 04:14:45;;;;;;;0.65;0.40;;;15.50;67.20;;;;;;5115443;28;20189;-65
2023/11/04 04:17:10;;;;;;;0.88;0.63;;;15.50;67.20;;;;;;5115780;28;20205;-65
2023/11/04 04:19:39;;;;;;;1.67;0.90;;;15.50;67.20;;;;;;5116171;28;20236;-64
2023/11/04 04:22:04;;;;;;;1.55;0.60;;;15.50;67.30;;;;;;5115148;28;20173;-64
2023/11/04 04:24:30;;;;;;;0.50;0.50;;;15.50;67.30;;;;;;5115977;28;20218;-64
2023/11/04 04:26:58;;;;;;;0.77;0.75;;;15.50;68.10;;;;;;5116125;28;20204;-63
2023/11/04 04:29:24;;;;;;;0.80;0.60;;;15.50;67.30;;;;;;5115217;28;20223;-63
2023/11/04 04:31:52;;;;;;;2.40;0.70;;;15.50;67.30;;;;;;5115856;28;20612;-65
2023/11/04 04:34:18;;;;;;;0.95;0.60;;;15.50;67.30;;;;;;5115533;28;20233;-65
2023/11/04 04:36:45;;;;;;;0.68;0.57;;;15.50;67.30;;;;;;5115189;28;20542;-66
2023/11/04 04:39:11;;;;;;;0.68;0.63;;;15.40;67.30;;;;;;5115211;28;20229;-66
2023/11/04 04:41:36;;;;;;;0.70;0.70;;;15.50;67.30;;;;;;5115306;28;20200;-65
2023/11/04 04:44:02;;;;;;;0.88;0.70;;;15.50;67.30;;;;;;5114585;28;20169;-64
2023/11/04 04:46:29;;;;;;;0.52;0.50;;;15.40;67.30;;;;;;5115560;28;20634;-64
2023/11/04 04:48:55;;;;;;;1.05;0.80;;;15.40;68.20;;;;;;5115473;28;20303;-64
2023/11/04 04:51:21;;;;;;;0.60;0.60;;;15.40;67.30;;;;;;5114502;28;20211;-64
2023/11/04 04:53:46;;;;;;;1.40;0.60;;;15.50;67.40;;;;;;5115582;28;20184;-65
2023/11/04 04:56:14;;;;;;;1.08;0.75;;;15.40;67.40;;;;;;5115192;28;20181;-65
2023/11/04 04:58:41;;;;;;;0.70;0.70;;;15.40;67.30;;;;;;5114514;28;20497;-64
2023/11/04 05:01:17;;;;;;;0.60;0.60;;;15.40;67.40;;;;;;5115254;28;20202;-64
2023/11/04 05:03:42;;;;;;;0.85;0.60;;;15.40;67.50;;;;;;5114505;28;20537;-65
2023/11/04 05:06:08;;;;;;;0.80;0.80;;;15.40;67.40;;;;;;5114986;28;20181;-65
2023/11/04 05:08:33;;;;;;;0.40;0.40;;;15.40;67.40;;;;;;5115417;28;20180;-65
2023/11/04 05:10:59;;;;;;;0.60;0.60;;;15.40;67.40;;;;;;5114194;28;20172;-65
2023/11/04 05:13:24;;;;;;;0.68;0.68;;;15.40;67.40;;;;;;5115055;28;20576;-65
2023/11/04 05:15:50;;;;;;;0.60;0.57;;;15.40;67.40;;;;;;5115046;28;20169;-65
2023/11/04 05:18:19;;;;;;;1.25;0.73;;;15.40;67.40;;;;;;5113888;28;20177;-65
2023/11/04 05:20:44;;;;;;;0.50;0.50;;;15.40;67.50;;;;;;5115054;28;20216;-65
2023/11/04 05:23:11;;;;;;;0.70;0.70;;;15.40;67.50;;;;;;5114743;28;20624;-65
2023/11/04 05:25:37;;;;;;;0.57;0.57;;;15.40;67.50;;;;;;5114015;28;20643;-65
2023/11/04 05:28:03;;;;;;;0.60;0.60;;;15.40;67.50;;;;;;5114618;28;20176;-64
2023/11/04 05:30:28;;;;;;;0.82;0.70;;;15.40;67.60;;;;;;5114683;28;20760;-64
2023/11/04 05:32:56;;;;;;;0.88;0.60;;;15.40;67.60;;;;;;5114056;28;20181;-64
2023/11/04 05:35:22;;;;;;;0.50;0.50;;;15.40;67.50;;;;;;5114348;28;20181;-65
2023/11/04 05:37:47;;;;;;;0.60;0.50;;;15.40;67.60;;;;;;5114629;28;20545;-64
2023/11/04 05:40:13;;;;;;;0.60;0.60;;;15.40;67.60;;;;;;5113365;28;20220;-65
2023/11/04 05:42:38;;;;;;;0.60;0.60;;;15.40;67.60;;;;;;5096323;28;20180;-64
2023/11/04 05:45:05;;;;;;;1.05;0.80;;;15.40;67.60;;;;;;5114252;28;20256;-64
2023/11/04 05:47:32;;;;;;;1.10;0.50;;;15.40;67.60;;;;;;5113557;28;20224;-64
2023/11/04 05:49:57;;;;;;;0.50;0.50;;;15.40;67.60;;;;;;5114300;28;20554;-64
2023/11/04 05:52:23;;;;;;;1.40;0.75;;;15.30;67.60;;;;;;5113344;28;20652;-64
2023/11/04 05:54:48;;;;;;;0.82;0.68;;;15.30;67.70;;;;;;5113525;28;20176;-65
2023/11/04 05:57:15;;;;;;;0.70;0.70;;;15.40;67.70;;;;;;5113867;28;20173;-65
2023/11/04 05:59:43;;;;;;;0.60;0.60;;;15.40;67.80;;;;;;5114008;28;20631;-65
2023/11/04 06:02:08;;;;;;;0.60;0.60;;;15.30;67.70;;;;;;5113460;28;20173;-64
2023/11/04 06:04:35;;;;;;;0.50;0.50;;;15.30;67.80;;;;;;5114249;28;20219;-64
2023/11/04 06:07:00;;;;;;;0.60;0.60;;;15.40;67.80;;;;;;5113048;28;20177;-65
2023/11/04 06:09:26;;;;;;;0.65;0.60;;;15.40;67.70;;;;;;5113977;28;20674;-65
2023/11/04 06:11:52;;;;;;;0.70;0.52;;;15.40;67.70;;;;;;5114141;28;20229;-64
2023/11/04 06:14:17;;;;;;;0.55;0.55;;;15.40;67.60;;;;;;5113013;28;20234;-65
2023/11/04 06:16:43;;;;;;;0.70;0.70;;;15.40;67.60;;;;;;5114032;28;20161;-64
2023/11/04 06:19:09;;;;;;;0.68;0.68;;;15.40;67.50;;;;;;5113367;28;20219;-65
2023/11/04 06:21:34;;;;;;;1.65;0.77;;;15.50;67.60;;;;;;5113072;28;20173;-65
2023/11/04 06:24:00;;;;;;;0.50;0.50;;;15.50;67.70;;;;;;5113299;28;20200;-65
2023/11/04 06:26:25;;;;;;;0.65;0.65;;;15.40;67.50;;;;;;5113902;28;20169;-64
2023/11/04 06:28:51;;;;;;;0.60;0.55;;;15.40;67.60;;;;;;5113149;28;20169;-63
2023/11/04 06:31:20;;;;;;;2.55;0.70;;;15.40;67.60;;;;;;5113554;28;20169;-64
2023/11/04 06:33:45;;;;;;;0.70;0.70;;;15.40;67.60;;;;;;5113677;28;20177;-65
2023/11/04 06:36:11;;;;;;;0.93;0.50;;;15.40;67.70;;;;;;5112683;28;20174;-65
2023/11/04 06:38:37;;;;;;;0.82;0.60;;;15.40;67.70;;;;;;5113330;28;20226;-65
2023/11/04 06:41:04;;;;;;;0.63;0.63;;;15.40;67.70;;;;;;5113363;28;20180;-63
2023/11/04 06:43:30;;;;;;;0.73;0.68;;;15.40;67.70;;;;;;5112933;28;20173;-64
2023/11/04 06:45:55;;;;;;;0.95;0.70;;;15.40;67.70;;;;;;5113550;28;20196;-64
2023/11/04 06:48:21;;;;;;;2.08;0.60;;;15.40;67.80;;;;;;5112949;28;20221;-65
2023/11/04 06:50:47;;;;;;;1.08;0.70;;;15.40;67.80;;;;;;5112580;28;20233;-63
2023/11/04 06:53:12;;;;;;;0.90;0.90;;;15.40;67.80;;;;;;5112915;28;20177;-64
2023/11/04 06:55:37;;;;;;;0.57;0.55;;;15.40;67.80;;;;;;5113555;28;20172;-65
2023/11/04 06:58:03;;;;;;;0.85;0.85;;;15.40;67.90;;;;;;5112336;28;20238;-64
2023/11/04 07:00:29;;;;;;;1.10;0.60;;;15.40;67.90;;;;;;5113399;28;20613;-65
2023/11/04 07:02:54;;;;;;;0.60;0.60;;;15.40;67.90;;;;;;5115136;28;20638;-64
2023/11/04 07:05:22;;;;;;;0.68;0.68;;;15.40;67.90;;;;;;5119069;28;20218;-65
2023/11/04 07:07:51;;;;;;;0.80;0.80;;;15.40;67.90;;;;;;5120084;28;20173;-65
2023/11/04 07:10:18;;;;;;;0.95;0.75;;;15.40;67.80;;;;;;5119076;28;20520;-64
2023/11/04 07:12:43;;;;;;;0.70;0.70;;;15.40;67.70;;;;;;5119963;28;20196;-65
2023/11/04 07:15:09;;;;;;;0.93;0.77;;;15.50;67.70;;;;;;5119805;28;20212;-64
2023/11/04 07:17:35;;;;;;;0.60;0.60;;;15.70;67.50;;;;;;5119020;28;20214;-65
2023/11/04 07:20:01;;;;;;;0.63;0.63;;;15.90;67.40;;;;;;5119595;28;20212;-65
2023/11/04 07:22:26;;;;;;;0.60;0.60;;;16.00;67.10;;;;;;5119874;28;20537;-65
2023/11/04 07:24:52;;;;;;;0.82;0.70;;;16.20;66.70;;;;;;5119080;28;20179;-65
2023/11/04 07:27:17;;;;;;;1.25;0.47;;;16.40;66.30;;;;;;5119439;28;20177;-65
2023/11/04 07:29:43;;;;;;;0.65;0.63;;;16.60;65.70;;;;;;5119956;28;20252;-64
2023/11/04 07:32:10;;;;;;;0.70;0.70;;;16.80;65.30;;;;;;5118887;28;20177;-64
2023/11/04 07:34:35;;;;;;;0.63;0.50;;;17.00;64.80;;;;;;5119774;28;20176;-64
2023/11/04 07:37:01;;;;;;;0.63;0.63;;;17.20;64.40;;;;;;5119300;28;20206;-65
2023/11/04 07:39:29;;;;;;;0.50;0.50;;;17.40;63.90;;;;;;5118918;28;20266;-65
2023/11/04 07:41:55;;;;;;;0.85;0.50;;;17.50;63.30;;;;;;5119856;28;20181;-64
2023/11/04 07:44:20;;;;;;;1.15;0.77;;;17.70;62.90;;;;;;5119272;28;20511;-64
2023/11/04 07:46:46;;;;;;;0.73;0.65;;;17.70;62.60;;;;;;5118890;28;20173;-64
2023/11/04 07:49:12;;;;;;;0.50;0.50;;;17.80;62.40;;;;;;5119194;28;20721;-65
2023/11/04 07:51:38;;;;;;;0.77;0.63;;;17.80;62.10;;;;;;5119573;28;20177;-64
2023/11/04 07:54:04;;;;;;;0.40;0.40;;;17.90;62.10;;;;;;5118555;28;20173;-64
2023/11/04 07:56:29;;;;;;;0.55;0.38;;;17.90;62.00;;;;;;5119550;28;20177;-65
2023/11/04 07:58:55;;;;;;;0.50;0.50;;;18.00;61.90;;;;;;5119583;28;20208;-64
2023/11/04 08:01:23;;;;;;;0.60;0.60;;;18.00;61.90;;;;;;5118705;28;20373;-65
2023/11/04 08:03:49;;;;;;;0.65;0.50;;;18.00;61.80;;;;;;5119460;28;20177;-64
2023/11/04 08:06:16;;;;;;;0.60;0.60;;;18.00;61.80;;;;;;5119025;28;20183;-65
2023/11/04 08:08:42;;;;;;;0.68;0.50;;;18.00;61.70;;;;;;5118753;28;20658;-65
2023/11/04 08:11:08;;;;;;;0.63;0.50;;;18.00;61.70;;;;;;5119354;28;20191;-65
2023/11/04 08:13:34;;;;;;;0.40;0.40;;;17.90;62.00;;;;;;5118556;28;20180;-65
2023/11/04 08:15:59;;;;;;;0.60;0.50;;;17.80;62.40;;;;;;5115057;28;20165;-64
2023/11/04 08:18:31;;;;;;;0.75;0.60;;;17.70;62.70;;;;;;5116183;28;20195;-64
2023/11/04 08:20:57;;;;;;;0.77;0.55;;;17.70;62.80;;;;;;5115552;28;20222;-65
2023/11/04 08:23:22;;;;;;;0.90;0.50;;;17.60;62.90;;;;;;5115786;28;20261;-65
2023/11/04 08:25:48;;;;;;;0.65;0.40;;;17.60;63.10;;;;;;5116092;28;20259;-65
2023/11/04 08:28:14;;;;;;;0.52;0.50;;;17.60;63.20;;;;;;5115059;28;20280;-64
2023/11/04 08:30:39;;;;;;;0.60;0.60;;;17.60;63.30;;;;;;5115975;28;20161;-64
2023/11/04 08:33:05;;;;;;;1.13;0.43;;;17.50;63.30;;;;;;5115765;28;20619;-64
2023/11/04 08:35:31;;;;;;;0.50;0.50;;;17.50;63.40;;;;;;5115360;28;20177;-65
2023/11/04 08:37:56;;;;;;;0.50;0.50;;;17.40;63.70;;;;;;5116183;28;20177;-65
2023/11/04 08:40:22;;;;;;;1.33;0.60;;;17.40;63.60;;;;;;5115396;28;20209;-65
2023/11/04 08:42:47;;;;;;;0.40;0.40;;;17.40;63.90;;;;;;5114874;28;20181;-64
2023/11/04 08:45:14;;;;;;;0.35;0.35;;;17.30;64.10;;;;;;5115436;28;20180;-64
2023/11/04 08:47:40;;;;;;;0.40;0.40;;;17.20;64.30;;;;;;5115419;28;20229;-63
2023/11/04 08:50:07;;;;;;;0.45;0.43;;;17.30;64.30;;;;;;5114513;28;20185;-64
2023/11/04 08:52:32;;;;;;;1.38;0.50;;;17.20;64.30;;;;;;5115673;28;20173;-64
2023/11/04 08:55:01;;;;;;;0.50;0.50;;;17.20;64.40;;;;;;5115161;28;20576;-64
2023/11/04 08:57:27;;;;;;;0.45;0.45;;;17.10;64.60;;;;;;5114854;28;20165;-64
2023/11/04 08:59:53;;;;;;;0.52;0.47;;;17.10;64.80;;;;;;5115334;28;20631;-64
2023/11/04 09:02:19;;;;;;;0.50;0.50;;;17.10;64.80;;;;;;5114968;28;20206;-64
2023/11/04 09:04:46;;;;;;;0.40;0.40;;;17.00;64.80;;;;;;5114813;28;20180;-64
2023/11/04 09:07:12;;;;;;;0.50;0.50;;;17.00;65.00;;;;;;5115165;28;20174;-65
2023/11/04 09:09:37;;;;;;;0.35;0.35;;;17.00;65.10;;;;;;5115398;28;20185;-65
2023/11/04 09:12:03;;;;;;;0.30;0.30;;;17.00;65.20;;;;;;5114082;28;20627;-64
2023/11/04 09:14:29;;;;;;;0.73;0.52;;;17.00;65.20;;;;;;5114984;28;20173;-65
2023/11/04 09:16:54;;;;;;;0.50;0.50;;;17.00;65.10;;;;;;5114252;28;20173;-65
2023/11/04 09:19:20;;;;;;;1.45;0.50;;;17.00;65.00;;;;;;5114527;28;20203;-65
2023/11/04 09:21:46;;;;;;;0.50;0.50;;;17.00;65.00;;;;;;5115147;28;20230;-65
2023/11/04 09:24:11;;;;;;;0.75;0.50;;;17.00;65.10;;;;;;5114015;28;20172;-65
2023/11/04 09:26:37;;;;;;;0.70;0.63;;;16.90;65.10;;;;;;5114831;28;20173;-65
2023/11/04 09:29:03;;;;;;;0.93;0.50;;;16.90;65.10;;;;;;5114529;28;20169;-64
2023/11/04 09:31:29;;;;;;;0.40;0.40;;;16.90;65.10;;;;;;5113888;28;20173;-64
2023/11/04 09:33:55;;;;;;;0.30;0.30;;;16.90;65.20;;;;;;5114379;28;20172;-65
2023/11/04 09:36:20;;;;;;;0.50;0.50;;;17.00;65.10;;;;;;5114412;28;20256;-65
2023/11/04 09:38:47;;;;;;;0.52;0.50;;;17.00;65.10;;;;;;5113726;28;20217;-65
2023/11/04 09:41:12;;;;;;;0.47;0.47;;;17.10;64.90;;;;;;5114274;28;20181;-64
2023/11/04 09:43:39;;;;;;;0.70;0.47;;;17.10;64.90;;;;;;5114399;28;20627;-64
2023/11/04 09:46:05;;;;;;;0.88;0.55;;;17.00;64.80;;;;;;5113390;28;20531;-64
2023/11/04 09:48:32;;;;;;;0.43;0.43;;;17.10;64.80;;;;;;5095974;28;20216;-64
2023/11/04 09:51:00;;;;;;;1.02;0.47;;;17.10;64.60;;;;;;5096339;28;20181;-64
2023/11/04 09:53:26;;;;;;;0.65;0.52;;;17.10;64.50;;;;;;5113575;28;20233;-65
2023/11/04 09:55:53;;;;;;;0.55;0.55;;;17.10;64.60;;;;;;5096338;28;20181;-65
2023/11/04 09:58:19;;;;;;;1.35;0.50;;;17.20;64.50;;;;;;5095918;28;20172;-65
2023/11/04 10:00:46;;;;;;;0.40;0.40;;;17.10;64.70;;;;;;5113306;28;20227;-64
2023/11/04 10:03:12;;;;;;;0.82;0.30;;;17.10;64.80;;;;;;5095879;28;20522;-65
2023/11/04 10:05:37;;;;;;;0.50;0.50;;;17.10;64.80;;;;;;5114212;28;20173;-65
2023/11/04 10:08:03;;;;;;;0.40;0.40;;;17.10;64.90;;;;;;5094891;28;20632;-65
2023/11/04 10:10:29;;;;;;;0.70;0.50;;;17.00;64.90;;;;;;5114239;28;20177;-66
2023/11/04 10:12:55;;;;;;;0.50;0.50;;;17.00;65.10;;;;;;5114153;28;20168;-65
2023/11/04 10:15:23;;;;;;;0.65;0.45;;;16.90;65.10;;;;;;5112866;28;20179;-65
2023/11/04 10:17:48;;;;;;;0.88;0.60;;;16.90;65.30;;;;;;5114182;28;20177;-64
2023/11/04 10:20:15;;;;;;;1.10;0.70;;;16.80;65.30;;;;;;5113020;28;20205;-65
2023/11/04 10:22:40;;;;;;;0.82;0.40;;;16.80;65.50;;;;;;5114073;28;20177;-65
2023/11/04 10:25:09;;;;;;;0.30;0.30;;;16.80;65.60;;;;;;5113571;28;20579;-65
2023/11/04 10:27:35;;;;;;;1.05;0.43;;;16.80;65.50;;;;;;5113054;28;20264;-65
2023/11/04 10:30:02;;;;;;;0.65;0.45;;;16.80;65.50;;;;;;5113309;28;20208;-64
2023/11/04 10:32:34;;;;;;;0.40;0.40;;;16.80;65.60;;;;;;5113509;28;20177;-64
2023/11/04 10:35:03;;;;;;;0.50;0.40;;;16.70;65.60;;;;;;5095174;28;20219;-65
2023/11/04 10:37:31;;;;;;;0.70;0.60;;;16.70;65.70;;;;;;5113130;28;20196;-65
2023/11/04 10:39:57;;;;;;;0.55;0.50;;;16.70;65.70;;;;;;5095289;28;20205;-65
2023/11/04 10:42:24;;;;;;;0.43;0.38;;;16.70;65.70;;;;;;5094399;28;20546;-64
2023/11/04 10:44:51;;;;;;;0.43;0.43;;;16.60;65.70;;;;;;5113683;28;20177;-64
2023/11/04 10:47:26;;;;;;;0.32;0.32;;;16.60;65.90;;;;;;5095100;28;20257;-64
2023/11/04 10:49:58;;;;;;;0.47;0.40;;;16.60;66.00;;;;;;5112814;28;20226;-63
2023/11/04 10:52:26;;;;;;;0.45;0.45;;;16.60;66.10;;;;;;5113380;28;20176;-64
2023/11/04 10:55:02;;;;;;;0.50;0.40;;;16.60;66.20;;;;;;5113256;28;20181;-65
2023/11/04 10:57:37;;;;;;;0.30;0.30;;;16.60;66.20;;;;;;5112460;28;20546;-65
2023/11/04 11:00:17;;;;;;;1.17;0.50;;;16.60;66.20;;;;;;5094845;28;20208;-64
2023/11/04 11:02:44;;;;;;;0.40;0.40;;;16.60;66.20;;;;;;5112689;28;20180;-64
2023/11/04 11:05:12;;;;;;;0.40;0.40;;;16.50;66.30;;;;;;5112863;28;20222;-65
2023/11/04 11:07:47;;;;;;;1.08;0.50;;;16.50;66.30;;;;;;5095631;28;20196;-66
2023/11/04 11:10:19;;;;;;;0.30;0.30;;;16.50;66.30;;;;;;5112037;28;20172;-65
2023/11/04 11:12:48;;;;;;;0.70;0.70;;;16.50;66.40;;;;;;5113295;28;20184;-65
2023/11/04 11:15:14;;;;;;;2.03;0.50;;;16.50;66.40;;;;;;5094530;28;20173;-65
2023/11/04 11:17:39;;;;;;;0.30;0.30;;;16.50;66.30;;;;;;5094212;28;20246;-65
2023/11/04 11:20:09;;;;;;;0.60;0.52;;;16.50;66.20;;;;;;5112644;28;20219;-65
2023/11/04 11:22:35;;;;;;;0.43;0.43;;;16.40;66.00;;;;;;5113221;28;20229;-65
2023/11/04 11:25:01;;;;;;;0.40;0.40;;;16.40;66.20;;;;;;5112172;28;20173;-65
2023/11/04 11:27:26;;;;;;;0.85;0.50;;;16.40;66.20;;;;;;5113140;28;20165;-65
2023/11/04 11:29:53;;;;;;;1.58;0.40;;;16.40;66.20;;;;;;5094788;28;20177;-64
2023/11/04 11:32:19;;;;;;;1.08;0.40;;;16.40;66.20;;;;;;5111850;28;20169;-64
2023/11/04 11:34:51;;;;;;;0.70;0.52;;;16.40;65.90;;;;;;5113176;28;20301;-65
2023/11/04 11:37:21;;;;;;;3.33;0.68;;;16.40;66.20;;;;;;5112689;28;20189;-65
2023/11/04 11:39:46;;;;;;;0.50;0.50;;;16.40;66.00;;;;;;5112387;28;20239;-65
2023/11/04 11:42:13;;;;;;;0.40;0.40;;;16.40;66.20;;;;;;5112677;28;20170;-64
2023/11/04 11:44:40;;;;;;;0.60;0.45;;;16.40;66.30;;;;;;5112264;28;20719;-64
2023/11/04 11:47:05;;;;;;;1.30;0.35;;;16.40;66.30;;;;;;5112554;28;20185;-64
2023/11/04 11:49:31;;;;;;;0.32;0.30;;;16.40;66.10;;;;;;5112617;28;20225;-64
2023/11/04 11:51:57;;;;;;;0.30;0.30;;;16.40;66.30;;;;;;5116170;28;20222;-65
2023/11/04 11:54:23;;;;;;;0.70;0.50;;;16.30;66.20;;;;;;5116760;28;20584;-65
2023/11/04 11:56:48;;;;;;;0.45;0.45;;;16.40;66.20;;;;;;5116749;28;20230;-65
2023/11/04 11:59:14;;;;;;;0.73;0.52;;;16.30;66.10;;;;;;5097174;28;20566;-65
2023/11/04 12:01:39;;;;;;;0.47;0.47;;;16.30;66.30;;;;;;5116711;28;20635;-64
2023/11/04 12:04:05;;;;;;;0.40;0.40;;;16.30;66.30;;;;;;5098136;28;20181;-65
2023/11/04 12:06:31;;;;;;;0.60;0.60;;;16.30;66.20;;;;;;5116049;28;20173;-65
2023/11/04 12:08:57;;;;;;;0.50;0.47;;;16.30;66.20;;;;;;5116486;28;20180;-65
2023/11/04 12:11:26;;;;;;;0.32;0.32;;;16.30;65.90;;;;;;5116363;28;20514;-65
2023/11/04 12:13:52;;;;;;;0.50;0.50;;;16.30;66.30;;;;;;5115617;28;20165;-65
2023/11/04 12:16:18;;;;;;;0.38;0.38;;;16.20;66.10;;;;;;5115864;28;20233;-65
2023/11/04 12:18:45;;;;;;;0.55;0.55;;;16.20;66.20;;;;;;5116190;28;20169;-65
2023/11/04 12:21:11;;;;;;;0.75;0.40;;;16.30;66.30;;;;;;5115365;28;20181;-65
2023/11/04 12:23:37;;;;;;;0.50;0.47;;;16.20;65.80;;;;;;5098007;28;20669;-66
2023/11/04 12:26:03;;;;;;;0.60;0.60;;;16.20;66.20;;;;;;5097745;28;20173;-65
2023/11/04 12:28:29;;;;;;;0.45;0.45;;;16.20;66.20;;;;;;5115236;28;20654;-64
2023/11/04 12:31:01;;;;;;;0.32;0.32;;;16.30;66.30;;;;;;5115941;28;20173;-64
2023/11/04 12:33:27;;;;;;;0.30;0.30;;;16.30;66.40;;;;;;5116143;28;20241;-64
2023/11/04 12:36:03;;;;;;;1.15;0.50;;;16.30;66.30;;;;;;5096941;28;20211;-65
2023/11/04 12:38:29;;;;;;;0.65;0.40;;;16.30;66.20;;;;;;5115852;28;20685;-65
2023/11/04 12:40:55;;;;;;;0.73;0.70;;;16.30;66.30;;;;;;5114954;28;20212;-65
2023/11/04 12:43:22;;;;;;;0.40;0.40;;;16.30;66.20;;;;;;5097410;28;20192;-63